sensor_id;sensor_type;location;lat;lon;timestamp;pressure;altitude;pressure_sealevel;temperature;humidity
64889;BME280;51386;53.082;8.816;2022-08-21T00:00:28;101557.25;;;25.00;40.58
64889;BME280;51386;53.082;8.816;2022-08-21T00:02:59;101558.25;;;24.94;40.73
64889;BME280;51386;53.082;8.816;2022-08-21T00:05:30;101554.19;;;24.91;41.04
64889;BME280;51386;53.082;8.816;2022-08-21T00:07:59;101547.97;;;24.91;41.13
64889;BME280;51386;53.082;8.816;2022-08-21T00:10:27;101551.41;;;24.86;41.27
64889;BME280;51386;53.082;8.816;2022-08-21T00:12:55;101548.72;;;24.86;41.45
64889;BME280;51386;53.082;8.816;2022-08-21T00:15:28;101550.25;;;24.82;41.49
64889;BME280;51386;53.082;8.816;2022-08-21T00:17:56;101549.13;;;24.78;41.33
64889;BME280;51386;53.082;8.816;2022-08-21T00:20:24;101539.81;;;24.69;41.76
64889;BME280;51386;53.082;8.816;2022-08-21T00:22:52;101538.69;;;24.65;41.98
64889;BME280;51386;53.082;8.816;2022-08-21T00:25:23;101540.31;;;24.66;41.61
64889;BME280;51386;53.082;8.816;2022-08-21T00:27:52;101541.38;;;24.65;42.08
64889;BME280;51386;53.082;8.816;2022-08-21T00:30:23;101543.50;;;24.63;42.09
64889;BME280;51386;53.082;8.816;2022-08-21T00:32:52;101544.00;;;24.60;42.01
64889;BME280;51386;53.082;8.816;2022-08-21T00:35:24;101546.38;;;24.56;42.23
64889;BME280;51386;53.082;8.816;2022-08-21T00:37:52;101543.94;;;24.55;42.32
64889;BME280;51386;53.082;8.816;2022-08-21T00:40:33;101544.91;;;24.49;42.27
64889;BME280;51386;53.082;8.816;2022-08-21T00:43:02;101544.59;;;24.45;42.13
64889;BME280;51386;53.082;8.816;2022-08-21T00:45:30;101530.31;;;24.45;42.51
64889;BME280;51386;53.082;8.816;2022-08-21T00:47:58;101534.78;;;24.39;42.33
64889;BME280;51386;53.082;8.816;2022-08-21T00:50:31;101533.59;;;24.30;42.26
64889;BME280;51386;53.082;8.816;2022-08-21T00:53:01;101526.50;;;24.24;42.58
64889;BME280;51386;53.082;8.816;2022-08-21T00:55:33;101531.88;;;24.24;42.69
64889;BME280;51386;53.082;8.816;2022-08-21T00:58:02;101532.63;;;24.19;42.46
64889;BME280;51386;53.082;8.816;2022-08-21T01:00:34;101531.72;;;24.14;42.46
64889;BME280;51386;53.082;8.816;2022-08-21T01:03:09;101536.44;;;24.07;42.62
64889;BME280;51386;53.082;8.816;2022-08-21T01:05:37;101536.75;;;24.10;43.10
64889;BME280;51386;53.082;8.816;2022-08-21T01:08:07;101533.84;;;24.12;42.57
64889;BME280;51386;53.082;8.816;2022-08-21T01:10:36;101529.75;;;24.09;42.87
64889;BME280;51386;53.082;8.816;2022-08-21T01:13:06;101535.13;;;24.09;42.52
64889;BME280;51386;53.082;8.816;2022-08-21T01:15:37;101528.00;;;24.03;42.37
64889;BME280;51386;53.082;8.816;2022-08-21T01:18:07;101540.22;;;23.94;42.67
64889;BME280;51386;53.082;8.816;2022-08-21T01:20:37;101529.88;;;23.86;42.96
64889;BME280;51386;53.082;8.816;2022-08-21T01:23:06;101536.78;;;23.82;43.02
64889;BME280;51386;53.082;8.816;2022-08-21T01:25:34;101535.53;;;23.73;43.17
64889;BME280;51386;53.082;8.816;2022-08-21T01:28:12;101535.66;;;23.50;43.65
64889;BME280;51386;53.082;8.816;2022-08-21T01:30:42;101536.41;;;23.34;43.93
64889;BME280;51386;53.082;8.816;2022-08-21T01:33:10;101534.53;;;23.23;44.45
64889;BME280;51386;53.082;8.816;2022-08-21T01:35:38;101544.59;;;23.16;44.46
64889;BME280;51386;53.082;8.816;2022-08-21T01:38:07;101536.13;;;23.07;44.66
64889;BME280;51386;53.082;8.816;2022-08-21T01:40:34;101537.03;;;23.01;44.43
64889;BME280;51386;53.082;8.816;2022-08-21T01:43:02;101541.25;;;22.97;44.59
64889;BME280;51386;53.082;8.816;2022-08-21T01:45:30;101539.03;;;22.94;45.29
64889;BME280;51386;53.082;8.816;2022-08-21T01:47:58;101533.91;;;22.92;45.11
64889;BME280;51386;53.082;8.816;2022-08-21T01:50:25;101541.66;;;22.89;45.24
64889;BME280;51386;53.082;8.816;2022-08-21T01:52:53;101530.56;;;22.85;45.56
64889;BME280;51386;53.082;8.816;2022-08-21T01:55:22;101535.34;;;22.83;45.63
64889;BME280;51386;53.082;8.816;2022-08-21T01:57:50;101536.97;;;22.84;45.75
64889;BME280;51386;53.082;8.816;2022-08-21T02:00:22;101529.16;;;22.83;45.44
64889;BME280;51386;53.082;8.816;2022-08-21T02:02:52;101531.13;;;22.87;45.50
64889;BME280;51386;53.082;8.816;2022-08-21T02:05:20;101535.00;;;22.92;45.70
64889;BME280;51386;53.082;8.816;2022-08-21T02:07:51;101528.09;;;22.96;45.27
64889;BME280;51386;53.082;8.816;2022-08-21T02:10:24;101525.97;;;22.98;45.22
64889;BME280;51386;53.082;8.816;2022-08-21T02:12:54;101519.78;;;22.97;45.03
64889;BME280;51386;53.082;8.816;2022-08-21T02:15:23;101522.72;;;22.96;45.24
64889;BME280;51386;53.082;8.816;2022-08-21T02:17:54;101519.44;;;22.94;45.07
64889;BME280;51386;53.082;8.816;2022-08-21T02:20:28;101520.50;;;22.92;45.35
64889;BME280;51386;53.082;8.816;2022-08-21T02:22:56;101527.50;;;22.94;45.27
64889;BME280;51386;53.082;8.816;2022-08-21T02:25:27;101521.66;;;22.97;45.21
64889;BME280;51386;53.082;8.816;2022-08-21T02:27:55;101513.94;;;23.00;45.21
64889;BME280;51386;53.082;8.816;2022-08-21T02:30:30;101511.50;;;22.99;44.90
64889;BME280;51386;53.082;8.816;2022-08-21T02:32:58;101508.00;;;22.98;44.92
64889;BME280;51386;53.082;8.816;2022-08-21T02:35:27;101503.91;;;22.96;45.23
64889;BME280;51386;53.082;8.816;2022-08-21T02:37:59;101501.38;;;22.89;45.28
64889;BME280;51386;53.082;8.816;2022-08-21T02:40:33;101497.88;;;22.88;45.30
64889;BME280;51386;53.082;8.816;2022-08-21T02:43:03;101499.25;;;22.91;45.09
64889;BME280;51386;53.082;8.816;2022-08-21T02:45:31;101500.16;;;22.97;45.59
64889;BME280;51386;53.082;8.816;2022-08-21T02:48:03;101495.38;;;22.99;45.10
64889;BME280;51386;53.082;8.816;2022-08-21T02:50:34;101492.47;;;23.00;45.09
64889;BME280;51386;53.082;8.816;2022-08-21T02:53:03;101490.50;;;22.96;45.19
64889;BME280;51386;53.082;8.816;2022-08-21T02:55:35;101486.66;;;22.92;45.47
64889;BME280;51386;53.082;8.816;2022-08-21T02:58:04;101491.41;;;22.89;45.30
64889;BME280;51386;53.082;8.816;2022-08-21T03:00:35;101479.53;;;22.85;45.29
64889;BME280;51386;53.082;8.816;2022-08-21T03:03:04;101480.00;;;22.82;45.38
64889;BME280;51386;53.082;8.816;2022-08-21T03:05:35;101481.63;;;22.83;45.42
64889;BME280;51386;53.082;8.816;2022-08-21T03:08:07;101492.38;;;22.83;45.58
64889;BME280;51386;53.082;8.816;2022-08-21T03:10:44;101482.09;;;22.80;45.71
64889;BME280;51386;53.082;8.816;2022-08-21T03:13:12;101490.97;;;22.81;45.86
64889;BME280;51386;53.082;8.816;2022-08-21T03:15:41;101483.25;;;22.84;45.88
64889;BME280;51386;53.082;8.816;2022-08-21T03:18:10;101482.31;;;22.90;45.54
64889;BME280;51386;53.082;8.816;2022-08-21T03:20:39;101479.84;;;23.01;45.46
64889;BME280;51386;53.082;8.816;2022-08-21T03:23:09;101478.97;;;23.12;45.37
64889;BME280;51386;53.082;8.816;2022-08-21T03:25:45;101483.75;;;23.21;44.91
64889;BME280;51386;53.082;8.816;2022-08-21T03:28:17;101470.06;;;23.23;44.91
64889;BME280;51386;53.082;8.816;2022-08-21T03:30:47;101470.56;;;23.20;44.91
64889;BME280;51386;53.082;8.816;2022-08-21T03:33:16;101477.53;;;23.21;44.68
64889;BME280;51386;53.082;8.816;2022-08-21T03:35:54;101473.16;;;23.15;44.82
64889;BME280;51386;53.082;8.816;2022-08-21T03:38:22;101467.78;;;23.15;44.64
64889;BME280;51386;53.082;8.816;2022-08-21T03:40:55;101461.22;;;23.11;44.98
64889;BME280;51386;53.082;8.816;2022-08-21T03:43:22;101462.31;;;23.10;44.77
64889;BME280;51386;53.082;8.816;2022-08-21T03:45:50;101455.84;;;23.11;44.95
64889;BME280;51386;53.082;8.816;2022-08-21T03:48:19;101462.88;;;23.12;45.09
64889;BME280;51386;53.082;8.816;2022-08-21T03:50:46;101462.56;;;23.08;45.38
64889;BME280;51386;53.082;8.816;2022-08-21T03:53:16;101471.66;;;23.07;45.11
64889;BME280;51386;53.082;8.816;2022-08-21T03:55:45;101472.94;;;23.05;45.33
64889;BME280;51386;53.082;8.816;2022-08-21T03:58:16;101475.53;;;23.00;45.51
64889;BME280;51386;53.082;8.816;2022-08-21T04:00:45;101475.19;;;22.96;45.64
64889;BME280;51386;53.082;8.816;2022-08-21T04:03:13;101482.78;;;22.87;45.61
64889;BME280;51386;53.082;8.816;2022-08-21T04:05:41;101481.66;;;22.72;46.23
64889;BME280;51386;53.082;8.816;2022-08-21T04:08:09;101482.84;;;22.64;46.47
64889;BME280;51386;53.082;8.816;2022-08-21T04:10:38;101491.22;;;22.56;46.55
64889;BME280;51386;53.082;8.816;2022-08-21T04:13:07;101485.16;;;22.49;46.56
64889;BME280;51386;53.082;8.816;2022-08-21T04:15:36;101479.78;;;22.49;46.42
64889;BME280;51386;53.082;8.816;2022-08-21T04:18:04;101486.22;;;22.48;46.54
64889;BME280;51386;53.082;8.816;2022-08-21T04:20:33;101487.63;;;22.51;46.63
64889;BME280;51386;53.082;8.816;2022-08-21T04:23:01;101483.03;;;22.51;46.82
64889;BME280;51386;53.082;8.816;2022-08-21T04:25:29;101490.06;;;22.52;46.86
64889;BME280;51386;53.082;8.816;2022-08-21T04:27:57;101491.22;;;22.56;46.34
64889;BME280;51386;53.082;8.816;2022-08-21T04:30:26;101483.72;;;22.58;45.83
64889;BME280;51386;53.082;8.816;2022-08-21T04:32:57;101494.03;;;22.61;46.04
64889;BME280;51386;53.082;8.816;2022-08-21T04:35:27;101488.78;;;22.66;46.01
64889;BME280;51386;53.082;8.816;2022-08-21T04:37:55;101488.44;;;22.74;45.92
64889;BME280;51386;53.082;8.816;2022-08-21T04:40:26;101489.22;;;22.75;46.09
64889;BME280;51386;53.082;8.816;2022-08-21T04:42:58;101488.78;;;22.66;46.15
64889;BME280;51386;53.082;8.816;2022-08-21T04:45:31;101487.13;;;22.54;46.12
64889;BME280;51386;53.082;8.816;2022-08-21T04:48:04;101484.56;;;22.47;46.37
64889;BME280;51386;53.082;8.816;2022-08-21T04:50:41;101487.97;;;22.43;46.45
64889;BME280;51386;53.082;8.816;2022-08-21T04:53:18;101492.38;;;22.37;46.89
64889;BME280;51386;53.082;8.816;2022-08-21T04:55:47;101491.59;;;22.37;46.78
64889;BME280;51386;53.082;8.816;2022-08-21T04:58:17;101493.22;;;22.38;46.76
64889;BME280;51386;53.082;8.816;2022-08-21T05:00:46;101502.31;;;22.37;47.32
64889;BME280;51386;53.082;8.816;2022-08-21T05:03:17;101501.63;;;22.30;47.47
64889;BME280;51386;53.082;8.816;2022-08-21T05:05:45;101507.06;;;22.23;47.42
64889;BME280;51386;53.082;8.816;2022-08-21T05:08:16;101515.00;;;22.18;47.11
64889;BME280;51386;53.082;8.816;2022-08-21T05:10:46;101515.13;;;22.23;47.68
64889;BME280;51386;53.082;8.816;2022-08-21T05:13:14;101507.06;;;22.23;47.39
64889;BME280;51386;53.082;8.816;2022-08-21T05:15:41;101508.84;;;22.17;47.76
64889;BME280;51386;53.082;8.816;2022-08-21T05:18:09;101505.22;;;22.12;48.16
64889;BME280;51386;53.082;8.816;2022-08-21T05:20:38;101502.97;;;22.09;47.83
64889;BME280;51386;53.082;8.816;2022-08-21T05:23:09;101509.75;;;22.11;48.40
64889;BME280;51386;53.082;8.816;2022-08-21T05:25:36;101513.38;;;22.17;48.20
64889;BME280;51386;53.082;8.816;2022-08-21T05:28:05;101516.06;;;22.29;47.98
64889;BME280;51386;53.082;8.816;2022-08-21T05:30:34;101507.69;;;22.37;48.14
64889;BME280;51386;53.082;8.816;2022-08-21T05:33:05;101509.78;;;22.46;47.71
64889;BME280;51386;53.082;8.816;2022-08-21T05:35:33;101518.63;;;22.58;47.46
64889;BME280;51386;53.082;8.816;2022-08-21T05:38:03;101516.19;;;22.68;47.09
64889;BME280;51386;53.082;8.816;2022-08-21T05:40:40;101513.03;;;22.83;47.10
64889;BME280;51386;53.082;8.816;2022-08-21T05:43:08;101514.09;;;22.94;46.92
64889;BME280;51386;53.082;8.816;2022-08-21T05:45:35;101517.44;;;23.01;46.55
64889;BME280;51386;53.082;8.816;2022-08-21T05:48:14;101519.56;;;22.99;46.84
64889;BME280;51386;53.082;8.816;2022-08-21T05:50:43;101512.97;;;23.06;46.71
64889;BME280;51386;53.082;8.816;2022-08-21T05:53:13;101517.88;;;23.09;46.29
64889;BME280;51386;53.082;8.816;2022-08-21T05:55:42;101517.41;;;23.12;46.19
64889;BME280;51386;53.082;8.816;2022-08-21T05:58:14;101515.56;;;23.13;46.40
64889;BME280;51386;53.082;8.816;2022-08-21T06:00:43;101517.63;;;23.11;46.26
64889;BME280;51386;53.082;8.816;2022-08-21T06:03:13;101513.81;;;23.07;46.46
64889;BME280;51386;53.082;8.816;2022-08-21T06:05:42;101523.63;;;23.13;46.25
64889;BME280;51386;53.082;8.816;2022-08-21T06:08:12;101520.44;;;23.16;46.36
64889;BME280;51386;53.082;8.816;2022-08-21T06:10:40;101512.47;;;23.21;45.98
64889;BME280;51386;53.082;8.816;2022-08-21T06:13:07;101523.91;;;23.28;46.18
64889;BME280;51386;53.082;8.816;2022-08-21T06:15:35;101517.72;;;23.39;45.90
64889;BME280;51386;53.082;8.816;2022-08-21T06:18:03;101507.63;;;23.46;45.86
64889;BME280;51386;53.082;8.816;2022-08-21T06:20:30;101513.69;;;23.53;45.69
64889;BME280;51386;53.082;8.816;2022-08-21T06:22:59;101510.50;;;23.56;45.79
64889;BME280;51386;53.082;8.816;2022-08-21T06:25:28;101515.91;;;23.44;45.85
64889;BME280;51386;53.082;8.816;2022-08-21T06:28:01;101517.81;;;23.32;46.29
64889;BME280;51386;53.082;8.816;2022-08-21T06:30:31;101511.44;;;23.22;46.71
64889;BME280;51386;53.082;8.816;2022-08-21T06:32:59;101508.75;;;23.22;46.75
64889;BME280;51386;53.082;8.816;2022-08-21T06:35:27;101518.06;;;23.31;46.66
64889;BME280;51386;53.082;8.816;2022-08-21T06:37:56;101518.38;;;23.46;46.64
64889;BME280;51386;53.082;8.816;2022-08-21T06:40:24;101508.88;;;23.55;46.70
64889;BME280;51386;53.082;8.816;2022-08-21T06:42:53;101514.34;;;23.60;46.22
64889;BME280;51386;53.082;8.816;2022-08-21T06:45:22;101520.66;;;23.54;46.44
64889;BME280;51386;53.082;8.816;2022-08-21T06:47:49;101518.38;;;23.46;46.88
64889;BME280;51386;53.082;8.816;2022-08-21T06:50:17;101512.84;;;23.52;46.59
64889;BME280;51386;53.082;8.816;2022-08-21T06:52:44;101517.13;;;23.65;46.56
64889;BME280;51386;53.082;8.816;2022-08-21T06:55:12;101507.44;;;23.81;46.35
64889;BME280;51386;53.082;8.816;2022-08-21T06:57:48;101505.25;;;23.94;46.42
64889;BME280;51386;53.082;8.816;2022-08-21T07:00:20;101513.63;;;24.09;45.94
64889;BME280;51386;53.082;8.816;2022-08-21T07:02:48;101509.44;;;24.18;45.74
64889;BME280;51386;53.082;8.816;2022-08-21T07:05:16;101506.66;;;24.30;45.55
64889;BME280;51386;53.082;8.816;2022-08-21T07:07:45;101514.91;;;24.40;45.50
64889;BME280;51386;53.082;8.816;2022-08-21T07:10:14;101507.22;;;24.49;45.56
64889;BME280;51386;53.082;8.816;2022-08-21T07:12:49;101503.47;;;24.50;45.85
64889;BME280;51386;53.082;8.816;2022-08-21T07:15:26;101509.09;;;24.48;45.95
64889;BME280;51386;53.082;8.816;2022-08-21T07:17:54;101501.34;;;24.52;45.55
64889;BME280;51386;53.082;8.816;2022-08-21T07:20:21;101505.22;;;24.61;45.65
64889;BME280;51386;53.082;8.816;2022-08-21T07:22:48;101507.50;;;24.69;45.62
64889;BME280;51386;53.082;8.816;2022-08-21T07:25:16;101501.47;;;24.78;45.80
64889;BME280;51386;53.082;8.816;2022-08-21T07:27:43;101501.34;;;24.90;45.33
64889;BME280;51386;53.082;8.816;2022-08-21T07:30:11;101498.16;;;24.93;45.57
64889;BME280;51386;53.082;8.816;2022-08-21T07:32:40;101500.53;;;25.11;45.19
64889;BME280;51386;53.082;8.816;2022-08-21T07:35:08;101497.31;;;25.58;44.62
64889;BME280;51386;53.082;8.816;2022-08-21T07:37:35;101505.53;;;26.36;44.01
64889;BME280;51386;53.082;8.816;2022-08-21T07:40:04;101498.91;;;27.16;41.58
64889;BME280;51386;53.082;8.816;2022-08-21T07:42:32;101502.88;;;28.00;40.43
64889;BME280;51386;53.082;8.816;2022-08-21T07:44:59;101494.41;;;28.57;38.67
64889;BME280;51386;53.082;8.816;2022-08-21T07:47:27;101506.50;;;29.00;37.58
64889;BME280;51386;53.082;8.816;2022-08-21T07:50:10;101493.00;;;29.83;37.18
64889;BME280;51386;53.082;8.816;2022-08-21T07:52:39;101506.22;;;30.75;35.75
64889;BME280;51386;53.082;8.816;2022-08-21T07:55:08;101502.53;;;31.51;33.48
64889;BME280;51386;53.082;8.816;2022-08-21T07:57:38;101499.75;;;32.21;32.94
64889;BME280;51386;53.082;8.816;2022-08-21T08:00:10;101503.06;;;32.77;31.71
64889;BME280;51386;53.082;8.816;2022-08-21T08:02:39;101493.81;;;33.50;30.95
64889;BME280;51386;53.082;8.816;2022-08-21T08:05:11;101502.94;;;34.34;29.65
64889;BME280;51386;53.082;8.816;2022-08-21T08:07:39;101500.16;;;35.04;27.91
64889;BME280;51386;53.082;8.816;2022-08-21T08:10:09;101499.25;;;35.68;27.57
64889;BME280;51386;53.082;8.816;2022-08-21T08:12:40;101495.19;;;36.38;26.70
64889;BME280;51386;53.082;8.816;2022-08-21T08:15:12;101499.47;;;36.94;24.89
64889;BME280;51386;53.082;8.816;2022-08-21T08:17:40;101496.44;;;37.28;24.05
64889;BME280;51386;53.082;8.816;2022-08-21T08:20:12;101496.06;;;37.59;23.58
64889;BME280;51386;53.082;8.816;2022-08-21T08:22:40;101498.34;;;37.57;23.22
64889;BME280;51386;53.082;8.816;2022-08-21T08:25:11;101504.25;;;37.47;23.59
64889;BME280;51386;53.082;8.816;2022-08-21T08:27:40;101490.34;;;37.64;23.01
64889;BME280;51386;53.082;8.816;2022-08-21T08:30:11;101490.38;;;37.97;22.78
64889;BME280;51386;53.082;8.816;2022-08-21T08:32:40;101499.16;;;38.47;21.70
64889;BME280;51386;53.082;8.816;2022-08-21T08:35:11;101493.56;;;38.80;21.13
64889;BME280;51386;53.082;8.816;2022-08-21T08:37:40;101492.38;;;39.05;20.95
64889;BME280;51386;53.082;8.816;2022-08-21T08:40:12;101494.88;;;39.50;20.46
64889;BME280;51386;53.082;8.816;2022-08-21T08:42:40;101489.78;;;40.07;19.85
64889;BME280;51386;53.082;8.816;2022-08-21T08:45:14;101497.97;;;40.66;19.35
64889;BME280;51386;53.082;8.816;2022-08-21T08:47:48;101488.97;;;41.04;19.00
64889;BME280;51386;53.082;8.816;2022-08-21T08:50:21;101486.88;;;41.16;17.80
64889;BME280;51386;53.082;8.816;2022-08-21T08:52:58;101486.00;;;40.93;17.49
64889;BME280;51386;53.082;8.816;2022-08-21T08:55:35;101491.69;;;40.85;18.34
64889;BME280;51386;53.082;8.816;2022-08-21T08:58:03;101483.25;;;40.93;18.84
64889;BME280;51386;53.082;8.816;2022-08-21T09:00:32;101492.88;;;40.68;18.40
64889;BME280;51386;53.082;8.816;2022-08-21T09:03:02;101483.47;;;40.07;18.57
64889;BME280;51386;53.082;8.816;2022-08-21T09:05:42;101483.25;;;40.00;18.90
64889;BME280;51386;53.082;8.816;2022-08-21T09:08:27;101480.44;;;40.27;19.47
64889;BME280;51386;53.082;8.816;2022-08-21T09:11:04;101471.63;;;40.37;18.87
64889;BME280;51386;53.082;8.816;2022-08-21T09:13:46;101476.88;;;39.68;19.43
64889;BME280;51386;53.082;8.816;2022-08-21T09:16:38;101474.75;;;39.61;19.86
64889;BME280;51386;53.082;8.816;2022-08-21T09:19:26;101470.84;;;40.06;19.62
64889;BME280;51386;53.082;8.816;2022-08-21T09:22:09;101464.69;;;40.78;19.12
64889;BME280;51386;53.082;8.816;2022-08-21T09:24:53;101473.94;;;41.20;18.88
64889;BME280;51386;53.082;8.816;2022-08-21T09:27:26;101469.78;;;41.49;18.32
64889;BME280;51386;53.082;8.816;2022-08-21T09:29:54;101455.91;;;41.07;18.63
64889;BME280;51386;53.082;8.816;2022-08-21T09:32:25;101472.63;;;40.45;18.83
64889;BME280;51386;53.082;8.816;2022-08-21T09:35:09;101472.84;;;39.10;19.84
64889;BME280;51386;53.082;8.816;2022-08-21T09:37:51;101468.72;;;38.07;20.68
64889;BME280;51386;53.082;8.816;2022-08-21T09:40:32;101468.03;;;38.10;20.78
64889;BME280;51386;53.082;8.816;2022-08-21T09:43:03;101464.66;;;38.74;20.34
64889;BME280;51386;53.082;8.816;2022-08-21T09:45:33;101451.88;;;39.33;19.49
64889;BME280;51386;53.082;8.816;2022-08-21T09:48:15;101459.94;;;39.81;18.91
64889;BME280;51386;53.082;8.816;2022-08-21T09:50:46;101456.38;;;40.28;18.87
64889;BME280;51386;53.082;8.816;2022-08-21T09:53:27;101463.28;;;40.84;18.40
64889;BME280;51386;53.082;8.816;2022-08-21T09:56:05;101452.84;;;41.12;18.06
64889;BME280;51386;53.082;8.816;2022-08-21T09:59:13;101452.75;;;41.47;17.04
64889;BME280;51386;53.082;8.816;2022-08-21T10:01:45;101457.00;;;41.83;17.34
64889;BME280;51386;53.082;8.816;2022-08-21T10:04:13;101454.59;;;42.04;17.12
64889;BME280;51386;53.082;8.816;2022-08-21T10:06:41;101442.63;;;41.55;18.06
64889;BME280;51386;53.082;8.816;2022-08-21T10:09:13;101443.75;;;40.58;18.27
64889;BME280;51386;53.082;8.816;2022-08-21T10:11:59;101452.13;;;40.15;19.13
64889;BME280;51386;53.082;8.816;2022-08-21T10:14:50;101453.78;;;39.05;19.99
64889;BME280;51386;53.082;8.816;2022-08-21T10:17:33;101458.00;;;38.75;20.35
64889;BME280;51386;53.082;8.816;2022-08-21T10:20:09;101445.31;;;39.38;19.78
64889;BME280;51386;53.082;8.816;2022-08-21T10:22:46;101441.41;;;39.98;19.58
64889;BME280;51386;53.082;8.816;2022-08-21T10:25:25;101436.63;;;40.26;18.82
64889;BME280;51386;53.082;8.816;2022-08-21T10:28:03;101437.56;;;40.65;18.99
64889;BME280;51386;53.082;8.816;2022-08-21T10:30:58;101443.50;;;41.20;18.41
64889;BME280;51386;53.082;8.816;2022-08-21T10:33:40;101450.63;;;41.60;18.02
64889;BME280;51386;53.082;8.816;2022-08-21T10:36:18;101448.59;;;41.76;17.70
64889;BME280;51386;53.082;8.816;2022-08-21T10:38:59;101443.47;;;41.17;17.79
64889;BME280;51386;53.082;8.816;2022-08-21T10:42:28;101438.03;;;39.88;18.66
64889;BME280;51386;53.082;8.816;2022-08-21T10:45:12;101442.34;;;38.91;19.50
64889;BME280;51386;53.082;8.816;2022-08-21T10:47:48;101437.28;;;37.84;20.46
64889;BME280;51386;53.082;8.816;2022-08-21T10:50:28;101431.44;;;36.91;20.91
64889;BME280;51386;53.082;8.816;2022-08-21T10:53:14;101430.56;;;36.20;22.27
64889;BME280;51386;53.082;8.816;2022-08-21T10:55:52;101432.00;;;35.62;23.16
64889;BME280;51386;53.082;8.816;2022-08-21T10:58:29;101439.94;;;35.04;23.35
64889;BME280;51386;53.082;8.816;2022-08-21T11:01:05;101440.94;;;34.60;24.10
64889;BME280;51386;53.082;8.816;2022-08-21T11:03:42;101434.94;;;34.49;24.46
64889;BME280;51386;53.082;8.816;2022-08-21T11:06:16;101436.13;;;34.26;24.69
64889;BME280;51386;53.082;8.816;2022-08-21T11:08:51;101432.66;;;34.03;24.56
64889;BME280;51386;53.082;8.816;2022-08-21T11:11:27;101430.19;;;34.02;24.72
64889;BME280;51386;53.082;8.816;2022-08-21T11:14:15;101433.06;;;34.58;23.70
64889;BME280;51386;53.082;8.816;2022-08-21T11:16:51;101431.38;;;35.05;23.71
64889;BME280;51386;53.082;8.816;2022-08-21T11:19:28;101419.41;;;35.61;23.07
64889;BME280;51386;53.082;8.816;2022-08-21T11:22:04;101428.47;;;36.17;22.96
64889;BME280;51386;53.082;8.816;2022-08-21T11:24:42;101430.84;;;36.27;22.91
64889;BME280;51386;53.082;8.816;2022-08-21T11:27:22;101425.94;;;35.94;22.64
64889;BME280;51386;53.082;8.816;2022-08-21T11:29:57;101434.28;;;35.09;23.09
64889;BME280;51386;53.082;8.816;2022-08-21T11:35:39;101428.38;;;34.11;24.78
64889;BME280;51386;53.082;8.816;2022-08-21T11:38:27;101426.69;;;33.71;24.63
64889;BME280;51386;53.082;8.816;2022-08-21T11:41:22;101427.72;;;33.39;24.72
64889;BME280;51386;53.082;8.816;2022-08-21T11:44:03;101428.16;;;33.32;25.24
64889;BME280;51386;53.082;8.816;2022-08-21T11:46:49;101427.94;;;33.29;25.66
64889;BME280;51386;53.082;8.816;2022-08-21T11:49:45;101429.06;;;33.06;25.93
64889;BME280;51386;53.082;8.816;2022-08-21T11:52:22;101423.41;;;32.89;25.97
64889;BME280;51386;53.082;8.816;2022-08-21T11:54:59;101432.72;;;32.74;26.34
64889;BME280;51386;53.082;8.816;2022-08-21T11:57:35;101427.06;;;32.57;26.45
64889;BME280;51386;53.082;8.816;2022-08-21T12:00:12;101421.81;;;32.47;26.41
64889;BME280;51386;53.082;8.816;2022-08-21T12:02:47;101426.56;;;32.41;26.13
64889;BME280;51386;53.082;8.816;2022-08-21T12:05:29;101426.47;;;32.33;27.06
64889;BME280;51386;53.082;8.816;2022-08-21T12:08:06;101428.47;;;32.27;26.33
64889;BME280;51386;53.082;8.816;2022-08-21T12:10:39;101426.06;;;32.26;26.67
64889;BME280;51386;53.082;8.816;2022-08-21T12:13:11;101418.00;;;32.21;26.71
64889;BME280;51386;53.082;8.816;2022-08-21T12:15:40;101431.81;;;32.10;26.31
64889;BME280;51386;53.082;8.816;2022-08-21T12:18:28;101423.22;;;32.03;26.34
64889;BME280;51386;53.082;8.816;2022-08-21T12:21:04;101424.84;;;32.04;26.15
64889;BME280;51386;53.082;8.816;2022-08-21T12:23:45;101428.31;;;31.91;26.09
64889;BME280;51386;53.082;8.816;2022-08-21T12:26:27;101429.59;;;31.80;26.49
64889;BME280;51386;53.082;8.816;2022-08-21T12:29:12;101416.66;;;31.72;26.88
64889;BME280;51386;53.082;8.816;2022-08-21T12:31:55;101413.75;;;31.50;27.69
64889;BME280;51386;53.082;8.816;2022-08-21T12:34:32;101419.38;;;31.40;27.48
64889;BME280;51386;53.082;8.816;2022-08-21T12:37:07;101418.56;;;31.39;27.06
64889;BME280;51386;53.082;8.816;2022-08-21T12:39:43;101422.16;;;31.35;27.73
64889;BME280;51386;53.082;8.816;2022-08-21T12:42:18;101421.78;;;31.41;28.12
64889;BME280;51386;53.082;8.816;2022-08-21T12:44:53;101415.41;;;31.51;28.27
64889;BME280;51386;53.082;8.816;2022-08-21T12:47:30;101413.09;;;31.58;28.18
64889;BME280;51386;53.082;8.816;2022-08-21T12:50:04;101417.69;;;31.76;27.57
64889;BME280;51386;53.082;8.816;2022-08-21T12:52:38;101412.97;;;31.95;26.97
64889;BME280;51386;53.082;8.816;2022-08-21T12:55:11;101409.09;;;32.42;27.40
64889;BME280;51386;53.082;8.816;2022-08-21T12:57:41;101413.63;;;32.88;26.77
64889;BME280;51386;53.082;8.816;2022-08-21T13:00:13;101412.25;;;33.12;26.29
64889;BME280;51386;53.082;8.816;2022-08-21T13:02:47;101403.31;;;33.20;25.73
64889;BME280;51386;53.082;8.816;2022-08-21T13:05:28;101412.13;;;33.17;25.46
64889;BME280;51386;53.082;8.816;2022-08-21T13:07:56;101403.75;;;33.14;25.54
64889;BME280;51386;53.082;8.816;2022-08-21T13:10:28;101394.88;;;33.08;25.51
64889;BME280;51386;53.082;8.816;2022-08-21T13:13:00;101402.75;;;32.96;25.97
64889;BME280;51386;53.082;8.816;2022-08-21T13:15:41;101400.16;;;32.91;25.77
64889;BME280;51386;53.082;8.816;2022-08-21T13:18:23;101404.91;;;32.86;26.50
64889;BME280;51386;53.082;8.816;2022-08-21T13:21:03;101398.28;;;32.78;26.50